createdAt,value
2023-01-12T00:02:59.176Z,-2.61
2023-01-12T00:06:04.819Z,-2.49
2023-01-12T00:09:10.498Z,-2.67
2023-01-12T00:12:16.498Z,-2.86
2023-01-12T00:15:17.377Z,-2.74
2023-01-12T00:18:03.339Z,-2.58
2023-01-12T00:20:58.646Z,-2.47
2023-01-12T00:24:04.738Z,-2.27
2023-01-12T00:27:10.966Z,-2.32
2023-01-12T00:30:15.776Z,-2.43
2023-01-12T00:33:22.470Z,-2.49
2023-01-12T00:36:29.494Z,-2.30
2023-01-12T00:39:35.435Z,-2.39
2023-01-12T00:42:58.855Z,-2.33
2023-01-12T00:46:07.444Z,-2.37
2023-01-12T00:49:12.816Z,-2.41
2023-01-12T00:52:31.178Z,-2.18
2023-01-12T00:55:27.434Z,-2.17
2023-01-12T00:58:32.782Z,-2.28
2023-01-12T01:01:38.908Z,-2.32
2023-01-12T01:04:44.662Z,-2.59
2023-01-12T01:07:50.184Z,-2.62
2023-01-12T01:10:55.854Z,-2.53
2023-01-12T01:14:01.330Z,-2.59
2023-01-12T01:17:07.299Z,-2.53
2023-01-12T01:20:12.752Z,-2.50
2023-01-12T01:23:18.407Z,-2.42
2023-01-12T01:26:27.006Z,-2.58
2023-01-12T01:29:33.707Z,-2.35
2023-01-12T01:32:38.833Z,-2.30
2023-01-12T01:35:44.947Z,-1.94
2023-01-12T01:38:49.634Z,-2.00
2023-01-12T01:41:54.810Z,-2.17
2023-01-12T01:45:03.726Z,-1.93
2023-01-12T01:48:07.748Z,-2.22
2023-01-12T01:51:17.647Z,-2.17
2023-01-12T01:54:23.515Z,-1.93
2023-01-12T01:57:29.964Z,-2.17
2023-01-12T02:00:35.769Z,-2.29
2023-01-12T02:03:41.711Z,-2.35
2023-01-12T02:06:47.681Z,-2.24
2023-01-12T02:09:53.941Z,-2.30
2023-01-12T02:13:17.956Z,-2.43
2023-01-12T02:16:33.311Z,-2.26
2023-01-12T02:20:12.912Z,-2.23
2023-01-12T02:24:03.851Z,-2.30
2023-01-12T02:27:42.526Z,-2.86
2023-01-12T02:31:15.320Z,-3.05
2023-01-12T02:34:57.392Z,-2.95
2023-01-12T02:38:36.131Z,-3.18
2023-01-12T02:42:11.755Z,-2.97
2023-01-12T02:45:59.859Z,-3.13
2023-01-12T02:49:24.636Z,-2.93
2023-01-12T02:52:31.683Z,-2.94
2023-01-12T02:55:37.649Z,-2.96
2023-01-12T02:58:43.286Z,-3.06
2023-01-12T03:01:49.008Z,-2.90
2023-01-12T03:04:55.584Z,-2.70
2023-01-12T03:08:18.709Z,-2.63
2023-01-12T03:11:32.597Z,-2.88
2023-01-12T03:14:37.545Z,-2.79
2023-01-12T03:17:57.269Z,-2.91
2023-01-12T03:21:05.346Z,-2.84
2023-01-12T03:24:24.631Z,-2.73
2023-01-12T03:27:53.347Z,-2.67
2023-01-12T03:31:02.864Z,-2.75
2023-01-12T03:34:08.570Z,-2.89
2023-01-12T03:37:46.128Z,-2.95
2023-01-12T03:40:53.900Z,-2.99
2023-01-12T03:44:04.705Z,-3.12
2023-01-12T03:47:18.105Z,-3.27
2023-01-12T03:50:37.470Z,-3.34
2023-01-12T03:53:42.995Z,-3.30
2023-01-12T03:56:51.795Z,-3.19
2023-01-12T03:59:51.441Z,-3.22
2023-01-12T04:03:00.710Z,-3.28
2023-01-12T04:06:06.097Z,-3.24
2023-01-12T04:09:12.093Z,-3.24
2023-01-12T04:12:18.107Z,-3.05
2023-01-12T04:15:24.776Z,-3.12
2023-01-12T04:18:30.258Z,-3.24
2023-01-12T04:21:53.688Z,-2.92
2023-01-12T04:24:59.008Z,-2.87
2023-01-12T04:28:10.512Z,-2.76
2023-01-12T04:31:17.153Z,-2.98
2023-01-12T04:34:22.507Z,-2.84
2023-01-12T04:37:28.636Z,-2.62
2023-01-12T04:40:34.587Z,-2.68
2023-01-12T04:43:43.141Z,-2.63
2023-01-12T04:46:48.572Z,-2.65
2023-01-12T04:49:53.758Z,-2.67
2023-01-12T04:53:00.343Z,-2.60
2023-01-12T04:56:06.513Z,-2.49
2023-01-12T04:59:14.198Z,-2.42
2023-01-12T05:02:12.762Z,-2.63
2023-01-12T05:05:18.526Z,-2.26
2023-01-12T05:08:42.310Z,-2.28
2023-01-12T05:11:48.647Z,-1.93
2023-01-12T05:14:54.613Z,-1.86
2023-01-12T05:18:01.130Z,-1.97
2023-01-12T05:21:06.940Z,-1.60
2023-01-12T05:24:12.707Z,-1.62
2023-01-12T05:27:19.280Z,-1.81
2023-01-12T05:30:26.033Z,-1.54
2023-01-12T05:33:31.948Z,-1.63
2023-01-12T05:36:38.343Z,-1.11
2023-01-12T05:39:44.382Z,-1.50
2023-01-12T05:43:08.705Z,-2.06
2023-01-12T05:46:18.880Z,-2.34
2023-01-12T05:49:25.830Z,-2.51
2023-01-12T05:52:31.509Z,-2.84
2023-01-12T05:55:37.074Z,-3.04
2023-01-12T05:58:43.275Z,-2.74
2023-01-12T06:01:50.518Z,-2.68
2023-01-12T06:04:56.637Z,-2.21
2023-01-12T06:08:02.594Z,-2.09
2023-01-12T06:11:08.227Z,-2.33
2023-01-12T06:14:14.565Z,-2.70
2023-01-12T06:17:13.574Z,-2.75
2023-01-12T06:20:24.186Z,-2.81
2023-01-12T06:23:34.936Z,-2.53
2023-01-12T06:26:37.438Z,-2.44
2023-01-12T06:29:43.407Z,-2.49
2023-01-12T06:32:49.356Z,-2.26
2023-01-12T06:35:55.304Z,-2.25
2023-01-12T06:39:01.136Z,-2.09
2023-01-12T06:42:25.155Z,-2.19
2023-01-12T06:45:30.602Z,-2.17
2023-01-12T06:48:39.001Z,-2.07
2023-01-12T06:51:44.370Z,-1.88
2023-01-12T06:54:43.183Z,-2.00
2023-01-12T06:57:49.522Z,-2.33
2023-01-12T07:00:58.412Z,-2.41
2023-01-12T07:04:03.650Z,-2.43
2023-01-12T07:07:12.304Z,-2.55
2023-01-12T07:10:19.726Z,-2.66
2023-01-12T07:13:19.308Z,-2.66
2023-01-12T07:16:16.474Z,-2.70
2023-01-12T07:19:22.204Z,-2.62
2023-01-12T07:22:27.125Z,-2.48
2023-01-12T07:25:33.141Z,-2.36
2023-01-12T07:28:40.866Z,-2.13
2023-01-12T07:31:48.056Z,-2.00
2023-01-12T07:34:55.711Z,-1.95
2023-01-12T07:38:06.757Z,-2.25
2023-01-12T07:41:18.575Z,-2.19
2023-01-12T07:44:27.111Z,-2.24
2023-01-12T07:47:35.002Z,-1.19
2023-01-12T07:50:44.117Z,-0.57
2023-01-12T07:53:50.538Z,-2.01
2023-01-12T07:56:57.382Z,-2.10
2023-01-12T08:00:03.176Z,-1.74
2023-01-12T08:03:22.540Z,-1.80
2023-01-12T08:06:29.094Z,-1.96
2023-01-12T08:09:39.311Z,-2.02
2023-01-12T08:12:46.788Z,-1.86
2023-01-12T08:15:56.884Z,-1.65
2023-01-12T08:19:21.435Z,-1.71
2023-01-12T08:22:30.742Z,-1.65
2023-01-12T08:25:40.271Z,-1.52
2023-01-12T08:31:32.668Z,-1.85
2023-01-12T08:34:39.568Z,-1.50
2023-01-12T08:37:38.333Z,-1.59
2023-01-12T08:40:24.420Z,-1.70
2023-01-12T08:43:17.766Z,-2.13
2023-01-12T08:46:12.502Z,-1.76
2023-01-12T08:49:25.717Z,-1.91
2023-01-12T08:52:32.622Z,-1.50
2023-01-12T08:55:38.054Z,-1.34
2023-01-12T08:58:43.281Z,-1.23
2023-01-12T09:01:49.253Z,-1.37
2023-01-12T09:04:55.341Z,-1.43
2023-01-12T09:08:01.143Z,-1.30
2023-01-12T09:11:08.455Z,-1.12
2023-01-12T09:14:13.603Z,-1.00
2023-01-12T09:17:21.386Z,-0.76
2023-01-12T09:20:30.070Z,-0.85
2023-01-12T09:23:29.008Z,-0.37
2023-01-12T09:26:38.923Z,-0.58
2023-01-12T09:29:44.086Z,-0.90
2023-01-12T09:32:50.198Z,-0.92
2023-01-12T09:35:55.051Z,-0.73
2023-01-12T09:39:00.613Z,-0.64
2023-01-12T09:42:24.054Z,-0.58
2023-01-12T09:45:53.523Z,-0.82
2023-01-12T09:49:00.139Z,-0.86
2023-01-12T09:52:44.130Z,-0.93
2023-01-12T09:56:08.466Z,-0.93
2023-01-12T09:59:28.726Z,-0.99
2023-01-12T10:02:35.268Z,-0.95
2023-01-12T10:06:11.888Z,-0.96
2023-01-12T10:09:18.917Z,-0.81
2023-01-12T10:12:38.649Z,-0.55
2023-01-12T10:15:57.296Z,-0.52
2023-01-12T10:19:02.649Z,-0.50
2023-01-12T10:22:08.413Z,-0.76
2023-01-12T10:25:13.906Z,-0.83
2023-01-12T10:28:45.976Z,-0.58
2023-01-12T10:31:52.872Z,-1.41
2023-01-12T10:35:05.621Z,-1.16
2023-01-12T10:38:11.696Z,-0.99
2023-01-12T10:41:27.458Z,-0.87
2023-01-12T10:44:33.699Z,-0.54
2023-01-12T10:47:39.472Z,-0.49
2023-01-12T10:50:46.411Z,-0.56
2023-01-12T10:54:12.128Z,-0.56
2023-01-12T10:57:36.578Z,-0.62
2023-01-12T11:00:42.230Z,-0.72
2023-01-12T11:03:50.705Z,-0.56
2023-01-12T11:07:04.802Z,-0.41
2023-01-12T11:10:08.209Z,-0.24
2023-01-12T11:13:19.455Z,-0.22
2023-01-12T11:16:35.204Z,-0.33
2023-01-12T11:19:44.988Z,-0.06
2023-01-12T11:22:43.864Z,0.16
2023-01-12T11:25:38.940Z,-0.05
2023-01-12T11:28:54.199Z,-0.16
2023-01-12T11:31:59.651Z,0.10
2023-01-12T11:35:11.726Z,0.29
2023-01-12T11:38:26.455Z,0.38
2023-01-12T11:41:46.058Z,0.62
2023-01-12T11:45:00.255Z,1.23
2023-01-12T11:48:09.309Z,1.17
2023-01-12T11:51:16.289Z,0.59
2023-01-12T11:54:24.078Z,0.33
2023-01-12T11:57:48.482Z,0.54
2023-01-12T12:01:07.909Z,0.23
2023-01-12T12:04:46.479Z,0.41
2023-01-12T12:08:11.762Z,0.30
2023-01-12T12:11:28.169Z,0.12
2023-01-12T12:14:51.935Z,0.14
2023-01-12T12:18:06.030Z,0.03
2023-01-12T12:21:48.199Z,0.09
2023-01-12T12:25:16.201Z,-0.01
2023-01-12T12:28:53.913Z,-0.01
2023-01-12T12:32:46.388Z,-0.04
2023-01-12T12:36:10.476Z,0.06
2023-01-12T12:39:43.332Z,0.20
2023-01-12T12:43:46.615Z,0.15
2023-01-12T12:47:00.800Z,0.18
2023-01-12T12:50:07.616Z,0.36
2023-01-12T12:53:35.851Z,0.07
2023-01-12T12:56:41.650Z,0.13
2023-01-12T12:59:58.070Z,0.11
2023-01-12T13:03:09.815Z,0.10
2023-01-12T13:06:44.028Z,0.03
2023-01-12T13:09:50.906Z,0.16
2023-01-12T13:12:56.812Z,0.15
2023-01-12T13:16:02.479Z,0.19
2023-01-12T13:19:13.690Z,0.07
2023-01-12T13:22:36.956Z,-0.02
2023-01-12T13:25:41.711Z,0.13
2023-01-12T13:28:47.217Z,-0.06
2023-01-12T13:31:52.834Z,-0.09
2023-01-12T13:34:58.523Z,-0.10
2023-01-12T13:38:20.340Z,-0.19
2023-01-12T13:42:09.006Z,0.03
2023-01-12T13:45:15.177Z,-0.02
2023-01-12T13:48:20.717Z,-0.02
2023-01-12T13:51:36.131Z,0.14
2023-01-12T13:54:41.424Z,0.08
2023-01-12T13:57:48.287Z,-0.17
2023-01-12T14:00:55.423Z,0.31
2023-01-12T14:04:22.388Z,0.11
2023-01-12T14:07:36.275Z,-0.21
2023-01-12T14:11:19.826Z,-0.12
2023-01-12T14:15:02.505Z,0.09
2023-01-12T14:18:12.696Z,-0.28
2023-01-12T14:21:17.459Z,-0.34
2023-01-12T14:24:34.323Z,-0.18
2023-01-12T14:27:39.831Z,-0.23
2023-01-12T14:30:45.555Z,-0.22
2023-01-12T14:33:45.735Z,-0.23
2023-01-12T14:36:59.883Z,-0.43
2023-01-12T14:40:04.523Z,-0.32
2023-01-12T14:43:27.747Z,-0.38
2023-01-12T14:46:48.246Z,-0.33
2023-01-12T14:49:53.651Z,-0.33
2023-01-12T14:53:00.690Z,-0.37
2023-01-12T14:56:05.917Z,-0.60
2023-01-12T14:59:21.342Z,-0.50
2023-01-12T15:02:36.318Z,-0.41
2023-01-12T15:05:44.280Z,-0.40
2023-01-12T15:08:51.229Z,-0.23
2023-01-12T15:11:57.203Z,0.15
2023-01-12T15:15:02.926Z,-0.03
2023-01-12T15:18:27.347Z,-0.14
2023-01-12T15:21:50.820Z,-0.21
2023-01-12T15:25:15.253Z,-0.10
2023-01-12T15:28:22.200Z,-0.15
2023-01-12T15:31:37.767Z,-0.69
2023-01-12T15:34:44.438Z,-0.47
2023-01-12T15:37:49.701Z,-0.61
2023-01-12T15:40:57.622Z,-0.72
2023-01-12T15:44:02.472Z,-0.73
2023-01-12T15:47:07.929Z,-0.79
2023-01-12T15:50:12.738Z,-0.80
2023-01-12T15:53:19.942Z,-0.62
2023-01-12T15:56:20.767Z,-0.64
2023-01-12T15:59:26.426Z,-0.71
2023-01-12T16:02:37.037Z,-0.65
2023-01-12T16:05:42.279Z,-0.60
2023-01-12T16:08:49.518Z,-0.60
2023-01-12T16:11:55.820Z,-0.69
2023-01-12T16:15:03.431Z,-0.66
2023-01-12T16:18:08.895Z,-0.67
2023-01-12T16:21:15.193Z,-0.48
2023-01-12T16:24:20.086Z,-0.52
2023-01-12T16:27:26.771Z,-0.66
2023-01-12T16:30:33.470Z,-0.82
2023-01-12T16:33:40.177Z,-0.94
2023-01-12T16:36:46.308Z,-0.72
2023-01-12T16:39:53.192Z,-0.46
2023-01-12T16:42:58.681Z,-1.09
2023-01-12T16:46:05.543Z,-1.07
2023-01-12T16:49:10.678Z,-1.02
2023-01-12T16:52:18.208Z,-1.04
2023-01-12T16:55:24.294Z,-0.94
2023-01-12T16:58:29.792Z,-1.08
2023-01-12T17:01:37.169Z,-0.72
2023-01-12T17:04:44.551Z,-1.42
2023-01-12T17:07:50.003Z,-1.04
2023-01-12T17:10:56.709Z,-1.17
2023-01-12T17:14:10.331Z,-0.95
2023-01-12T17:17:18.577Z,-0.74
2023-01-12T17:20:27.088Z,-1.06
2023-01-12T17:23:34.021Z,-1.10
2023-01-12T17:26:40.114Z,-1.19
2023-01-12T17:29:45.899Z,-1.14
2023-01-12T17:32:51.292Z,-1.21
2023-01-12T17:35:57.076Z,-1.30
2023-01-12T17:39:02.854Z,-1.32
2023-01-12T17:42:26.024Z,-1.20
2023-01-12T17:45:32.632Z,-1.30
2023-01-12T17:48:31.851Z,-0.38
2023-01-12T17:51:38.919Z,-0.28
2023-01-12T17:54:44.999Z,-0.26
2023-01-12T17:57:51.152Z,-0.36
2023-01-12T18:00:56.752Z,-0.34
2023-01-12T18:04:03.383Z,-0.19
2023-01-12T18:07:02.977Z,-0.10
2023-01-12T18:10:09.393Z,-0.14
2023-01-12T18:13:15.415Z,-0.07
2023-01-12T18:16:23.285Z,-0.13
2023-01-12T18:19:29.604Z,-0.20
2023-01-12T18:22:36.234Z,-0.09
2023-01-12T18:25:42.814Z,0.03
2023-01-12T18:28:47.809Z,0.17
2023-01-12T18:31:54.090Z,0.15
2023-01-12T18:34:59.467Z,0.01
2023-01-12T18:38:05.905Z,0.20
2023-01-12T18:41:29.738Z,-0.44
2023-01-12T18:44:35.382Z,-0.43
2023-01-12T18:47:59.297Z,-0.51
2023-01-12T18:51:26.835Z,-0.61
2023-01-12T18:54:32.489Z,-0.45
2023-01-12T18:57:40.207Z,-0.34
2023-01-12T19:00:45.154Z,-0.27
2023-01-12T19:03:51.603Z,-0.30
2023-01-12T19:07:01.744Z,-0.28
2023-01-12T19:10:08.028Z,-0.46
2023-01-12T19:13:31.266Z,-0.23
2023-01-12T19:16:54.536Z,-0.01
2023-01-12T19:20:00.724Z,-0.01
2023-01-12T19:23:23.954Z,-0.15
2023-01-12T19:26:50.361Z,-0.48
2023-01-12T19:29:57.225Z,-0.34
2023-01-12T19:33:02.754Z,-0.31
2023-01-12T19:36:09.156Z,-0.18
2023-01-12T19:39:16.314Z,-0.19
2023-01-12T19:42:39.224Z,-0.03
2023-01-12T19:45:44.778Z,-0.07
2023-01-12T19:48:51.836Z,0.18
2023-01-12T19:51:58.506Z,0.11
2023-01-12T19:55:03.498Z,0.09
2023-01-12T19:58:11.679Z,0.09
2023-01-12T20:01:17.942Z,0.12
2023-01-12T20:04:24.155Z,0.20
2023-01-12T20:07:29.023Z,0.30
2023-01-12T20:10:38.867Z,0.38
2023-01-12T20:13:46.134Z,0.44
2023-01-12T20:16:53.480Z,0.43
2023-01-12T20:19:59.012Z,0.48
2023-01-12T20:23:05.116Z,0.40
2023-01-12T20:26:10.379Z,0.34
2023-01-12T20:29:16.132Z,0.27
2023-01-12T20:32:21.647Z,0.21
2023-01-12T20:35:30.398Z,0.44
2023-01-12T20:38:28.767Z,0.48
2023-01-12T20:41:34.523Z,0.46
2023-01-12T20:44:40.128Z,0.47
2023-01-12T20:47:46.689Z,0.53
2023-01-12T20:50:53.551Z,0.37
2023-01-12T20:54:00.727Z,0.22
2023-01-12T20:57:07.635Z,0.31
2023-01-12T21:00:13.975Z,0.31
2023-01-12T21:03:19.439Z,0.61
2023-01-12T21:06:28.797Z,0.64
2023-01-12T21:09:34.304Z,0.53
2023-01-12T21:12:40.214Z,0.39
2023-01-12T21:15:46.197Z,0.57
2023-01-12T21:18:52.173Z,0.63
2023-01-12T21:21:59.570Z,0.89
2023-01-12T21:25:06.070Z,0.86
2023-01-12T21:28:11.799Z,0.63
2023-01-12T21:31:18.729Z,0.38
2023-01-12T21:34:24.238Z,0.45
2023-01-12T21:37:29.885Z,0.48
2023-01-12T21:40:35.110Z,0.58
2023-01-12T21:43:41.773Z,0.56
2023-01-12T21:46:47.569Z,0.63
2023-01-12T21:49:54.428Z,0.47
2023-01-12T21:53:01.782Z,0.71
2023-01-12T21:56:12.531Z,0.74
2023-01-12T21:59:19.178Z,0.81
2023-01-12T22:02:26.131Z,0.67
2023-01-12T22:05:34.298Z,0.87
2023-01-12T22:08:40.114Z,0.83
2023-01-12T22:11:45.741Z,0.76
2023-01-12T22:14:37.672Z,0.65
2023-01-12T22:17:44.533Z,0.59
2023-01-12T22:20:50.396Z,0.49
2023-01-12T22:23:55.491Z,0.54
2023-01-12T22:27:02.120Z,0.58
2023-01-12T22:30:08.328Z,0.72
2023-01-12T22:33:14.335Z,0.71
2023-01-12T22:36:20.826Z,0.76
2023-01-12T22:39:29.405Z,0.75
2023-01-12T22:42:52.808Z,0.66
2023-01-12T22:46:01.242Z,0.92
2023-01-12T22:49:12.204Z,0.89
2023-01-12T22:52:18.518Z,0.77
2023-01-12T22:55:23.831Z,0.77
2023-01-12T22:58:29.575Z,0.80
2023-01-12T23:01:37.596Z,0.90
2023-01-12T23:04:43.764Z,0.91
2023-01-12T23:07:42.184Z,0.90
2023-01-12T23:10:34.885Z,0.88
2023-01-12T23:13:40.851Z,0.83
2023-01-12T23:16:45.867Z,0.87
2023-01-12T23:19:52.095Z,1.00
2023-01-12T23:22:58.587Z,1.04
2023-01-12T23:26:04.215Z,1.10
2023-01-12T23:29:12.676Z,1.18
2023-01-12T23:32:17.556Z,1.15
2023-01-12T23:35:24.341Z,1.09
2023-01-12T23:38:29.935Z,1.08
2023-01-12T23:41:37.059Z,1.14
2023-01-12T23:44:42.521Z,1.03
2023-01-12T23:47:47.693Z,1.11
2023-01-12T23:50:53.773Z,1.15
2023-01-12T23:53:59.677Z,1.09
2023-01-12T23:57:07.225Z,1.26
